Time;durP1;ratioP1;P1;durP2;ratioP2;P2;SDS_P1;SDS_P2;PMS_P1;PMS_P2;Temp;Humidity;BMP_temperature;BMP_pressure;BME280_temperature;BME280_humidity;BME280_pressure;Samples;Min_cycle;Max_cycle;Signal;HPM_P1;HPM_P2
2021/12/01 00:01:35;;;;;;;1.70;1.20;;;;;;;4.04;67.42;98106.63;5107375;28;20098;-67
2021/12/01 00:04:08;;;;;;;1.48;1.15;;;;;;;4.06;67.47;98098.69;5107431;28;20040;-67
2021/12/01 00:06:40;;;;;;;1.63;1.15;;;;;;;4.05;67.50;98137.16;5107345;28;20039;-66
2021/12/01 00:09:14;;;;;;;1.48;1.10;;;;;;;4.09;67.54;98127.38;5107215;28;20044;-66
2021/12/01 00:11:46;;;;;;;1.77;1.20;;;;;;;4.10;67.68;98158.78;5106470;28;20052;-66
2021/12/01 00:14:18;;;;;;;1.40;1.10;;;;;;;4.13;67.84;98152.53;5107203;28;20085;-66
2021/12/01 00:16:50;;;;;;;2.00;1.30;;;;;;;4.15;67.67;98161.19;5107179;28;20036;-66
2021/12/01 00:19:22;;;;;;;1.52;1.10;;;;;;;4.17;67.83;98127.84;5107089;28;20141;-67
2021/12/01 00:21:54;;;;;;;2.30;1.20;;;;;;;4.17;67.87;98154.94;5089067;28;20040;-67
2021/12/01 00:24:28;;;;;;;1.88;1.30;;;;;;;4.18;68.00;98154.00;5089040;28;20085;-66
2021/12/01 00:27:01;;;;;;;2.00;1.50;;;;;;;4.20;68.06;98159.22;5089033;28;20040;-66
2021/12/01 00:29:33;;;;;;;1.52;1.10;;;;;;;4.21;67.92;98154.81;5106645;28;20085;-67
2021/12/01 00:32:06;;;;;;;1.52;1.20;;;;;;;4.23;68.16;98164.31;5106548;28;20051;-67
2021/12/01 00:34:38;;;;;;;3.75;1.55;;;;;;;4.26;68.17;98171.19;5106815;28;20043;-66
2021/12/01 00:37:10;;;;;;;1.85;1.27;;;;;;;4.29;68.16;98169.25;5106504;28;20040;-67
2021/12/01 00:39:44;;;;;;;1.37;1.03;;;;;;;4.32;68.09;98165.63;5106380;28;20044;-67
2021/12/01 00:42:18;;;;;;;1.70;1.20;;;;;;;4.36;68.08;98160.16;5106393;28;20081;-67
2021/12/01 00:44:56;;;;;;;1.60;1.20;;;;;;;4.37;68.21;98147.91;5106366;28;20085;-67
2021/12/01 00:47:41;;;;;;;1.10;1.00;;;;;;;4.39;68.55;98160.00;5088455;28;20133;-67
2021/12/01 00:50:17;;;;;;;1.70;1.40;;;;;;;4.43;68.65;98160.72;5106544;28;20043;-67
2021/12/01 00:52:49;;;;;;;1.15;1.00;;;;;;;4.25;68.48;98138.00;5106174;28;20044;-66
2021/12/01 00:55:21;;;;;;;1.45;1.10;;;;;;;4.49;68.59;98153.38;5106181;28;20043;-66
2021/12/01 00:57:51;;;;;;;1.58;1.10;;;;;;;4.52;68.30;98160.25;5106157;28;20047;-66
2021/12/01 01:00:21;;;;;;;1.50;1.10;;;;;;;4.50;68.72;98154.22;5106032;28;20066;-66
2021/12/01 01:02:51;;;;;;;1.40;1.10;;;;;;;4.53;68.88;98176.84;5106039;28;20063;-66
2021/12/01 01:05:20;;;;;;;1.30;1.05;;;;;;;4.55;68.56;98154.84;5105978;28;20039;-66
2021/12/01 01:07:51;;;;;;;1.95;1.30;;;;;;;4.59;68.44;98156.41;5088325;28;20074;-66
2021/12/01 01:10:35;;;;;;;1.30;1.10;;;;;;;4.61;68.25;98185.19;5106226;28;20043;-66
2021/12/01 01:18:59;;;;;;;1.40;1.08;;;;;;;4.22;68.69;98097.03;5106165;28;20089;-66
2021/12/01 01:21:35;;;;;;;1.70;1.10;;;;;;;4.70;68.72;98185.59;5105962;28;20097;-66
2021/12/01 01:24:07;;;;;;;1.98;1.23;;;;;;;4.73;68.47;98172.31;5105255;28;20082;-67
2021/12/01 01:26:40;;;;;;;1.38;1.27;;;;;;;4.75;68.50;98152.06;5105817;28;20062;-66
2021/12/01 01:29:13;;;;;;;1.38;1.10;;;;;;;4.75;68.74;98167.81;5105697;28;20043;-66
2021/12/01 01:31:45;;;;;;;1.30;1.00;;;;;;;4.76;68.82;98151.16;5105959;28;20090;-66
2021/12/01 01:34:17;;;;;;;23.92;11.13;;;;;;;4.87;69.98;98162.88;5105962;28;20081;-66
2021/12/01 01:36:50;;;;;;;2.58;1.33;;;;;;;4.95;68.78;98171.25;5105941;28;20040;-66
2021/12/01 01:39:22;;;;;;;1.25;1.00;;;;;;;4.90;68.98;98175.88;5105648;28;20085;-66
2021/12/01 01:41:56;;;;;;;1.48;1.08;;;;;;;4.90;68.98;98165.38;5105569;28;20243;-66
2021/12/01 01:44:30;;;;;;;1.40;1.00;;;;;;;4.89;69.04;98175.03;5105607;28;20090;-65
2021/12/01 01:47:03;;;;;;;1.48;1.15;;;;;;;4.91;69.06;98185.47;5105547;28;20048;-66
2021/12/01 01:49:44;;;;;;;1.10;1.00;;;;;;;4.92;68.90;98153.88;5105530;28;20043;-66
2021/12/01 01:52:16;;;;;;;1.15;1.00;;;;;;;3.99;69.15;98035.22;5105473;28;20089;-65
2021/12/01 01:54:48;;;;;;;1.13;1.00;;;;;;;4.95;69.09;98173.88;5105506;28;20040;-66
2021/12/01 01:57:22;;;;;;;1.10;1.00;;;;;;;4.94;69.13;98166.94;5088155;28;20044;-66
2021/12/01 01:59:54;;;;;;;1.20;1.00;;;;;;;4.95;69.42;98155.50;5105716;28;20346;-65
2021/12/01 02:02:27;;;;;;;1.10;1.00;;;;;;;4.98;69.61;98161.44;5105580;28;20086;-66
2021/12/01 02:04:59;;;;;;;1.60;1.00;;;;;;;5.00;69.95;98162.22;5105627;28;20088;-65
2021/12/01 02:07:31;;;;;;;1.63;1.00;;;;;;;4.99;69.79;98151.78;5105630;28;20040;-66
2021/12/01 02:10:05;;;;;;;1.20;1.00;;;;;;;5.00;69.93;98159.59;5105317;28;20296;-66
2021/12/01 02:12:40;;;;;;;1.30;1.00;;;;;;;4.99;70.34;98150.00;5105314;28;20113;-66
2021/12/01 02:15:12;;;;;;;1.27;1.00;;;;;;;5.02;70.30;98165.59;5105290;28;20226;-66
2021/12/01 02:17:44;;;;;;;1.20;1.10;;;;;;;5.02;70.36;98162.13;5105215;28;20039;-66
2021/12/01 02:20:20;;;;;;;1.52;1.25;;;;;;;5.01;70.54;98160.44;5105470;28;20048;-66
2021/12/01 02:22:52;;;;;;;1.23;1.00;;;;;;;4.98;70.84;98174.56;5105255;28;20040;-66
2021/12/01 02:25:25;;;;;;;1.70;1.20;;;;;;;5.00;70.83;98133.31;5105232;28;20044;-66
2021/12/01 02:27:55;;;;;;;2.55;1.05;;;;;;;4.99;71.10;98154.41;5105199;28;20296;-66
2021/12/01 02:30:25;;;;;;;1.20;1.00;;;;;;;4.97;71.00;98127.38;5105449;28;20082;-67
2021/12/01 02:32:55;;;;;;;2.13;1.30;;;;;;;4.97;71.13;98148.38;5105074;28;20086;-66
2021/12/01 02:35:27;;;;;;;1.40;1.00;;;;;;;4.96;71.09;98131.78;5106696;28;20040;-66
2021/12/01 02:37:56;;;;;;;1.50;1.10;;;;;;;4.95;71.06;98116.97;5109084;28;20044;-66
2021/12/01 02:40:26;;;;;;;1.20;1.00;;;;;;;4.72;71.14;98112.00;5108798;28;20185;-66
2021/12/01 02:42:56;;;;;;;1.33;1.10;;;;;;;4.98;70.85;98129.94;5108909;28;20101;-66
2021/12/01 02:45:27;;;;;;;1.17;1.05;;;;;;;4.96;70.91;98125.69;5108962;28;20103;-66
2021/12/01 02:47:57;;;;;;;1.80;1.00;;;;;;;4.97;71.01;98125.59;5108474;28;20103;-66
2021/12/01 02:50:29;;;;;;;1.38;1.10;;;;;;;4.99;70.68;98134.25;5108868;28;20289;-66
2021/12/01 02:52:57;;;;;;;1.80;1.27;;;;;;;5.02;70.59;98151.63;5108551;28;20296;-66
2021/12/01 02:55:30;;;;;;;2.17;1.30;;;;;;;4.97;71.03;98116.88;5108747;28;20081;-67
2021/12/01 02:57:59;;;;;;;1.67;1.17;;;;;;;4.99;70.98;98128.16;5108616;28;20056;-66
2021/12/01 03:00:28;;;;;;;1.10;0.93;;;;;;;4.94;71.00;98089.00;5108414;28;20035;-66
2021/12/01 03:02:58;;;;;;;1.30;1.00;;;;;;;4.97;70.63;98091.47;5108574;28;20082;-66
2021/12/01 03:05:30;;;;;;;1.30;1.10;;;;;;;4.96;71.04;98081.06;5108554;28;20040;-67
2021/12/01 03:07:59;;;;;;;1.20;1.00;;;;;;;4.97;70.81;98067.00;5108524;28;20036;-66
2021/12/01 03:10:29;;;;;;;1.58;1.10;;;;;;;4.94;70.91;98086.38;5108515;28;20039;-67
2021/12/01 03:12:59;;;;;;;1.55;1.10;;;;;;;4.91;71.04;98081.28;5108169;28;20044;-67
2021/12/01 03:15:29;;;;;;;1.10;1.00;;;;;;;4.93;70.96;98087.31;5108351;28;20048;-66
2021/12/01 03:18:00;;;;;;;2.10;1.20;;;;;;;4.91;71.01;98086.53;5108297;28;20044;-66
2021/12/01 03:20:31;;;;;;;1.52;1.00;;;;;;;4.86;71.27;98082.44;5108273;28;20044;-66
2021/12/01 03:23:00;;;;;;;1.13;1.02;;;;;;;3.98;71.27;97954.88;5108107;28;20066;-66
2021/12/01 03:25:31;;;;;;;1.52;1.10;;;;;;;4.87;70.95;98098.09;5107884;28;20263;-66
2021/12/01 03:28:01;;;;;;;2.72;1.17;;;;;;;4.85;71.37;98102.59;5108057;28;20112;-66
2021/12/01 03:30:33;;;;;;;1.42;1.20;;;;;;;4.84;71.20;98110.53;5107698;28;20053;-66
2021/12/01 03:33:02;;;;;;;1.33;1.00;;;;;;;4.83;71.29;98099.19;5107804;28;20075;-66
2021/12/01 03:35:33;;;;;;;1.13;1.00;;;;;;;4.82;71.38;98103.59;5107850;28;20040;-66
2021/12/01 03:38:02;;;;;;;1.33;1.10;;;;;;;4.12;71.09;98041.56;5107878;28;20036;-66
2021/12/01 03:40:32;;;;;;;1.55;1.10;;;;;;;4.85;71.00;98126.22;5107810;28;20063;-66
2021/12/01 03:43:03;;;;;;;2.95;1.10;;;;;;;4.87;70.96;98113.00;5107679;28;20064;-65
2021/12/01 03:45:32;;;;;;;2.03;1.52;;;;;;;4.79;71.04;98127.38;5107520;28;20040;-65
2021/12/01 03:48:03;;;;;;;1.50;1.20;;;;;;;4.84;70.92;98135.00;5106481;28;20055;-66
2021/12/01 03:50:35;;;;;;;1.40;1.05;;;;;;;4.36;71.12;98085.88;5107680;28;20107;-66
2021/12/01 03:53:03;;;;;;;1.30;1.00;;;;;;;4.84;70.87;98160.41;5107386;28;20324;-66
2021/12/01 03:55:34;;;;;;;1.50;1.10;;;;;;;4.61;70.95;98119.59;5107587;28;20032;-66
2021/12/01 03:58:04;;;;;;;1.38;1.10;;;;;;;4.62;70.69;98108.16;5107262;28;20103;-66
2021/12/01 04:00:34;;;;;;;1.30;1.00;;;;;;;4.62;71.04;98106.38;5107184;28;20085;-66
2021/12/01 04:03:04;;;;;;;2.35;1.30;;;;;;;4.92;70.70;98166.16;5107108;28;20107;-66
2021/12/01 04:05:36;;;;;;;1.45;1.10;;;;;;;4.93;70.72;98168.69;5107454;28;20044;-66
2021/12/01 04:08:07;;;;;;;2.05;1.30;;;;;;;4.94;70.66;98164.31;5107337;28;20040;-66
2021/12/01 04:10:36;;;;;;;1.77;1.30;;;;;;;3.93;70.79;98003.22;5107597;28;20040;-66
2021/12/01 04:13:05;;;;;;;1.80;1.30;;;;;;;4.95;70.63;98173.88;5107269;28;20055;-66
2021/12/01 04:15:35;;;;;;;1.65;1.27;;;;;;;4.95;70.69;98181.75;5089265;28;20315;-66
2021/12/01 04:18:05;;;;;;;2.25;1.20;;;;;;;4.94;70.90;98182.69;5107155;28;20121;-66
2021/12/01 04:20:37;;;;;;;1.80;1.30;;;;;;;4.94;71.10;98196.66;5106841;28;20047;-66
2021/12/01 04:23:06;;;;;;;1.60;1.10;;;;;;;4.97;70.95;98198.28;5106696;28;20039;-66
2021/12/01 04:25:36;;;;;;;1.45;1.00;;;;;;;4.98;70.89;98200.81;5107003;28;20085;-67
2021/12/01 04:28:06;;;;;;;1.40;1.10;;;;;;;5.00;70.92;98219.13;5106718;28;20354;-65
2021/12/01 04:30:37;;;;;;;1.33;1.02;;;;;;;5.00;70.88;98201.59;5106920;28;20062;-66
2021/12/01 04:33:07;;;;;;;1.70;1.13;;;;;;;5.00;71.01;98195.50;5106814;28;20043;-66
2021/12/01 04:35:39;;;;;;;1.38;1.02;;;;;;;5.00;70.89;98196.34;5106561;28;20040;-66
2021/12/01 04:38:07;;;;;;;1.75;1.25;;;;;;;5.03;71.01;98188.31;5106808;28;20103;-66
2021/12/01 04:40:38;;;;;;;1.42;1.08;;;;;;;5.04;70.89;98199.66;5088988;28;20225;-66
2021/12/01 04:43:08;;;;;;;1.50;1.17;;;;;;;5.05;70.86;98202.22;5106306;28;20044;-66
2021/12/01 04:45:42;;;;;;;1.95;1.27;;;;;;;5.06;70.75;98197.81;5106409;28;20055;-67
2021/12/01 04:48:14;;;;;;;1.83;1.10;;;;;;;5.07;71.07;98208.22;5106320;28;20089;-66
2021/12/01 04:50:45;;;;;;;1.58;1.13;;;;;;;5.08;70.90;98190.69;5106829;28;20039;-66
2021/12/01 04:53:14;;;;;;;1.63;1.27;;;;;;;5.11;70.89;98195.78;5106210;28;20215;-66
2021/12/01 04:55:44;;;;;;;2.25;1.30;;;;;;;5.15;70.90;98213.09;5106477;28;20059;-66
2021/12/01 04:58:15;;;;;;;1.67;1.15;;;;;;;5.14;70.90;98211.41;5106068;28;20040;-66
2021/12/01 05:00:45;;;;;;;1.75;1.17;;;;;;;4.87;71.18;98168.97;5106439;28;20040;-67
2021/12/01 05:03:15;;;;;;;2.28;1.30;;;;;;;5.13;71.42;98214.94;5106320;28;20284;-66
2021/12/01 05:05:46;;;;;;;1.30;1.10;;;;;;;5.14;71.12;98211.41;5106307;28;20058;-66
2021/12/01 05:08:15;;;;;;;3.00;1.67;;;;;;;5.15;71.26;98209.63;5105976;28;20085;-66
2021/12/01 05:10:45;;;;;;;1.83;1.30;;;;;;;5.15;71.59;98199.97;5106013;28;20036;-67
2021/12/01 05:13:16;;;;;;;1.73;1.20;;;;;;;5.13;71.72;98223.69;5105967;28;20070;-67
2021/12/01 05:15:46;;;;;;;3.00;1.30;;;;;;;5.17;71.89;98199.88;5105876;28;20036;-66
2021/12/01 05:18:16;;;;;;;2.10;1.45;;;;;;;5.15;72.61;98197.34;5105884;28;20090;-67
2021/12/01 05:20:48;;;;;;;1.80;1.20;;;;;;;5.15;72.28;98199.13;5105837;28;20089;-66
2021/12/01 05:23:17;;;;;;;2.22;1.38;;;;;;;5.15;72.90;98205.22;5088100;28;20253;-67
2021/12/01 05:25:48;;;;;;;2.70;1.88;;;;;;;5.15;72.99;98217.50;5105649;28;20036;-67
2021/12/01 05:28:18;;;;;;;2.20;1.40;;;;;;;5.17;72.74;98203.38;5105774;28;20036;-67
2021/12/01 05:30:48;;;;;;;1.83;1.38;;;;;;;5.16;73.10;98209.53;5105978;28;20235;-66
2021/12/01 05:33:18;;;;;;;2.28;1.50;;;;;;;5.16;73.22;98204.28;5105943;28;20048;-67
2021/12/01 05:35:50;;;;;;;1.80;1.20;;;;;;;4.72;73.23;98133.88;5105582;28;20107;-67
2021/12/01 05:38:18;;;;;;;2.38;1.60;;;;;;;5.19;73.08;98204.13;5105786;28;20082;-67
2021/12/01 05:40:50;;;;;;;1.90;1.35;;;;;;;5.20;72.82;98211.09;5105474;28;20239;-67
2021/12/01 05:43:20;;;;;;;1.50;1.20;;;;;;;5.21;73.12;98197.03;5105409;28;20048;-67
2021/12/01 05:45:49;;;;;;;1.90;1.20;;;;;;;4.25;72.79;98082.94;5105314;28;20040;-67
2021/12/01 05:48:20;;;;;;;1.80;1.10;;;;;;;5.24;72.87;98206.53;5105744;28;20036;-66
2021/12/01 05:50:51;;;;;;;2.38;1.50;;;;;;;4.53;73.10;98098.13;5105838;28;20042;-67
2021/12/01 05:53:20;;;;;;;1.80;1.17;;;;;;;5.23;73.23;98207.44;5106023;28;20051;-67
2021/12/01 05:55:51;;;;;;;2.60;1.20;;;;;;;5.27;72.94;98215.09;5105784;28;20059;-67
2021/12/01 05:58:21;;;;;;;1.90;1.20;;;;;;;5.29;72.79;98210.59;5088102;28;20041;-67
2021/12/01 06:00:51;;;;;;;2.35;1.55;;;;;;;4.84;73.04;98129.75;5105470;28;20203;-66
2021/12/01 06:03:21;;;;;;;1.45;1.20;;;;;;;5.30;73.19;98219.34;5105350;28;20046;-66
2021/12/01 06:05:53;;;;;;;1.52;1.10;;;;;;;5.30;73.07;98214.94;5088015;28;20090;-66
2021/12/01 06:08:22;;;;;;;1.80;1.10;;;;;;;5.32;73.05;98214.84;5105141;28;20040;-66
2021/12/01 06:10:52;;;;;;;2.10;1.20;;;;;;;4.88;73.07;98136.56;5107747;28;20036;-65
2021/12/01 06:13:24;;;;;;;1.75;1.30;;;;;;;5.37;73.07;98218.09;5109503;28;20109;-66
2021/12/01 06:15:52;;;;;;;1.58;1.30;;;;;;;5.37;72.94;98215.47;5109268;28;20089;-66
2021/12/01 06:18:23;;;;;;;2.33;1.50;;;;;;;5.37;73.23;98204.94;5109452;28;20132;-66
2021/12/01 06:20:55;;;;;;;1.77;1.23;;;;;;;5.41;72.86;98207.34;5109281;28;20103;-66
2021/12/01 06:23:23;;;;;;;1.90;1.38;;;;;;;5.41;73.27;98214.38;5108719;28;20078;-66
2021/12/01 06:25:54;;;;;;;1.70;1.20;;;;;;;5.42;73.22;98213.44;5109045;28;20040;-66
2021/12/01 06:28:24;;;;;;;1.60;1.20;;;;;;;5.42;73.25;98209.03;5109280;28;20035;-66
2021/12/01 06:30:54;;;;;;;1.83;1.20;;;;;;;5.44;72.96;98193.19;5108717;28;20066;-66
2021/12/01 06:33:24;;;;;;;3.53;1.52;;;;;;;5.45;72.94;98189.63;5108966;28;20075;-67
2021/12/01 06:35:56;;;;;;;1.60;1.10;;;;;;;5.48;72.79;98183.38;5108701;28;20046;-67
2021/12/01 06:38:25;;;;;;;2.08;1.35;;;;;;;5.50;73.08;98186.75;5108951;28;20099;-67
2021/12/01 06:40:55;;;;;;;2.42;1.50;;;;;;;5.55;72.64;98182.09;5091369;28;20044;-67
2021/12/01 06:43:25;;;;;;;2.28;1.35;;;;;;;5.55;72.76;98177.69;5108626;28;20036;-67
2021/12/01 06:45:55;;;;;;;2.50;1.50;;;;;;;5.58;72.52;98176.69;5108649;28;20071;-66
2021/12/01 06:48:26;;;;;;;2.40;1.40;;;;;;;5.58;72.44;98192.47;5108845;28;20040;-67
2021/12/01 06:50:57;;;;;;;2.50;1.63;;;;;;;5.58;72.49;98180.16;5108536;28;20103;-67
2021/12/01 06:53:27;;;;;;;1.80;1.30;;;;;;;4.88;72.38;98064.81;5108371;28;20107;-67
2021/12/01 06:55:57;;;;;;;2.40;1.40;;;;;;;5.61;72.17;98192.28;5108224;28;20081;-67
2021/12/01 06:58:27;;;;;;;1.85;1.27;;;;;;;5.65;72.03;98199.94;5108439;28;20040;-67
2021/12/01 07:00:58;;;;;;;1.50;1.20;;;;;;;5.65;72.08;98199.09;5108627;28;20296;-67
2021/12/01 07:03:27;;;;;;;2.45;1.63;;;;;;;5.67;71.81;98205.97;5108139;28;20066;-67
2021/12/01 07:05:59;;;;;;;2.28;1.30;;;;;;;5.69;71.67;98195.38;5108320;28;20108;-67
2021/12/01 07:08:28;;;;;;;2.05;1.40;;;;;;;5.70;71.61;98182.13;5090615;28;20246;-67
2021/12/01 07:10:58;;;;;;;2.40;1.50;;;;;;;5.69;71.43;98198.84;5090397;28;20048;-67
2021/12/01 07:13:31;;;;;;;1.60;1.23;;;;;;;5.73;71.24;98191.63;5108124;28;20040;-67
2021/12/01 07:15:59;;;;;;;1.90;1.30;;;;;;;5.53;71.17;98153.28;5107531;28;20109;-67
2021/12/01 07:18:29;;;;;;;2.10;1.30;;;;;;;5.78;71.09;98192.22;5108306;28;20192;-67
2021/12/01 07:21:01;;;;;;;1.73;1.30;;;;;;;5.81;71.05;98175.44;5107353;28;20040;-66
2021/12/01 07:23:29;;;;;;;1.98;1.20;;;;;;;4.52;70.88;97971.34;5107296;28;20093;-67
2021/12/01 07:26:00;;;;;;;2.05;1.30;;;;;;;5.82;70.84;98193.75;5107889;28;20044;-67
2021/12/01 07:28:30;;;;;;;2.40;1.85;;;;;;;5.85;70.81;98185.72;5107858;28;20040;-66
2021/12/01 07:31:01;;;;;;;2.08;1.40;;;;;;;5.86;71.10;98186.56;5108140;28;20047;-67
2021/12/01 07:33:32;;;;;;;1.83;1.20;;;;;;;5.86;71.78;98182.16;5108021;28;20040;-67
2021/12/01 07:36:04;;;;;;;1.50;1.10;;;;;;;5.83;71.89;98177.06;5107915;28;20039;-67
2021/12/01 07:38:36;;;;;;;1.73;1.20;;;;;;;5.64;72.33;98136.94;5107964;28;20040;-67
2021/12/01 07:41:09;;;;;;;2.08;1.30;;;;;;;5.81;72.43;98164.94;5107758;28;20040;-68
2021/12/01 07:43:41;;;;;;;2.78;1.60;;;;;;;5.59;72.06;98113.53;5107371;28;20044;-67
2021/12/01 07:46:13;;;;;;;2.67;1.67;;;;;;;5.85;71.84;98148.91;5107449;28;20102;-67
2021/12/01 07:48:45;;;;;;;2.00;1.48;;;;;;;5.86;71.84;98142.72;5107469;28;20291;-67
2021/12/01 07:51:19;;;;;;;2.30;1.50;;;;;;;5.92;71.61;98131.00;5107349;28;20081;-67
2021/12/01 07:53:52;;;;;;;2.22;1.20;;;;;;;5.48;71.69;98051.97;5107370;28;20288;-67
2021/12/01 07:56:25;;;;;;;2.20;1.60;;;;;;;5.94;71.57;98116.84;5107363;28;20066;-67
2021/12/01 07:58:57;;;;;;;2.60;1.67;;;;;;;5.94;71.47;98127.34;5107189;28;20044;-67
2021/12/01 08:01:29;;;;;;;2.22;1.52;;;;;;;5.97;71.65;98116.66;5107101;28;20247;-67
2021/12/01 08:04:01;;;;;;;1.85;1.25;;;;;;;6.00;71.26;98115.63;5107091;28;20047;-67
2021/12/01 08:06:35;;;;;;;2.65;1.90;;;;;;;6.03;71.29;98118.09;5107109;28;20086;-67
2021/12/01 08:09:08;;;;;;;2.00;1.33;;;;;;;6.03;71.37;98113.69;5107066;28;20346;-66
2021/12/01 08:11:40;;;;;;;4.00;2.10;;;;;;;6.06;71.13;98107.41;5107247;28;20043;-67
2021/12/01 08:14:13;;;;;;;2.78;1.83;;;;;;;6.09;71.10;98096.72;5107180;28;20044;-67
2021/12/01 08:16:45;;;;;;;2.95;1.85;;;;;;;6.13;70.93;98107.91;5106961;28;20039;-67
2021/12/01 08:19:18;;;;;;;2.42;1.65;;;;;;;6.14;70.82;98099.94;5089453;28;20062;-67
2021/12/01 08:21:52;;;;;;;3.30;1.50;;;;;;;6.19;71.00;98107.56;5106680;28;20097;-67
2021/12/01 08:24:24;;;;;;;3.80;1.50;;;;;;;6.23;70.89;98101.19;5106803;28;20284;-67
2021/12/01 08:26:56;;;;;;;2.05;1.20;;;;;;;6.24;70.92;98103.72;5106750;28;20039;-67
2021/12/01 08:29:28;;;;;;;1.77;1.27;;;;;;;6.27;70.86;98110.59;5106511;28;20043;-67
2021/12/01 08:32:01;;;;;;;1.70;1.20;;;;;;;6.28;70.67;98104.41;5106814;28;20039;-67
2021/12/01 08:34:33;;;;;;;2.45;1.60;;;;;;;6.31;70.76;98094.53;5088747;28;20089;-67
2021/12/01 08:37:08;;;;;;;3.58;1.35;;;;;;;6.31;70.84;98088.44;5106892;28;20044;-67
2021/12/01 08:39:41;;;;;;;2.00;1.25;;;;;;;6.33;70.69;98095.31;5106542;28;20040;-67
2021/12/01 08:42:14;;;;;;;3.28;1.77;;;;;;;6.35;70.94;98101.31;5106691;28;20040;-67
2021/12/01 08:44:47;;;;;;;1.90;1.30;;;;;;;6.36;70.63;98094.28;5106559;28;20156;-67
2021/12/01 08:47:22;;;;;;;1.77;1.23;;;;;;;6.40;70.64;98091.38;5106161;28;20216;-67
2021/12/01 08:49:54;;;;;;;1.88;1.30;;;;;;;6.39;70.84;98091.47;5106258;28;20044;-68
2021/12/01 08:52:28;;;;;;;2.03;1.42;;;;;;;6.39;70.93;98089.69;5106507;28;20044;-67
2021/12/01 08:55:00;;;;;;;3.00;1.65;;;;;;;6.42;70.95;98088.66;5106162;28;20048;-67
2021/12/01 08:57:32;;;;;;;1.67;1.17;;;;;;;6.42;71.26;98083.41;5106170;28;20288;-67
2021/12/01 09:00:06;;;;;;;2.20;1.30;;;;;;;6.45;71.23;98098.16;5106126;28;20223;-67
2021/12/01 09:02:38;;;;;;;1.88;1.30;;;;;;;6.22;71.43;98074.03;5106440;28;20086;-67
2021/12/01 09:05:11;;;;;;;3.08;1.45;;;;;;;6.43;71.43;98088.56;5105855;28;20039;-67
2021/12/01 09:07:44;;;;;;;2.40;1.63;;;;;;;6.45;71.27;98092.91;5105846;28;20098;-67
2021/12/01 09:10:16;;;;;;;2.97;1.20;;;;;;;6.47;71.42;98106.81;5106226;28;20093;-67
2021/12/01 09:12:49;;;;;;;2.03;1.10;;;;;;;6.45;71.54;98080.59;5105958;28;20066;-67
2021/12/01 09:15:21;;;;;;;2.17;1.30;;;;;;;6.49;71.78;98089.16;5105882;28;20235;-67
2021/12/01 09:17:53;;;;;;;2.05;1.30;;;;;;;6.51;71.44;98084.63;5106121;28;20047;-67
2021/12/01 09:20:26;;;;;;;2.85;1.30;;;;;;;5.57;71.35;97933.19;5105910;28;20044;-68
2021/12/01 09:23:00;;;;;;;3.17;1.50;;;;;;;6.53;71.90;98083.59;5106028;28;20173;-67
2021/12/01 09:25:33;;;;;;;2.35;1.60;;;;;;;6.49;71.90;98076.00;5105674;28;20292;-68
2021/12/01 09:28:05;;;;;;;1.52;1.10;;;;;;;6.53;72.04;98086.25;5106205;28;20093;-67
2021/12/01 09:30:38;;;;;;;1.73;1.10;;;;;;;6.53;71.95;98072.25;5105687;28;20044;-67
2021/12/01 09:33:10;;;;;;;3.08;1.48;;;;;;;6.54;72.26;98066.03;5105645;28;20040;-67
2021/12/01 09:35:44;;;;;;;2.22;1.30;;;;;;;6.53;72.39;98061.72;5105804;28;20048;-67
2021/12/01 09:38:18;;;;;;;3.15;1.95;;;;;;;6.55;72.30;98054.56;5105559;28;20044;-67
2021/12/01 09:40:54;;;;;;;2.80;1.63;;;;;;;6.54;72.24;98050.25;5105636;28;20044;-67
2021/12/01 09:43:31;;;;;;;1.90;1.10;;;;;;;6.54;72.46;98043.19;5105893;28;20300;-67
2021/12/01 09:46:08;;;;;;;1.80;1.20;;;;;;;6.55;72.62;98044.03;5108162;28;20262;-67
2021/12/01 09:48:41;;;;;;;1.85;1.30;;;;;;;6.53;72.62;98038.88;5110051;28;20278;-67
2021/12/01 09:51:10;;;;;;;1.45;1.10;;;;;;;6.51;72.73;98034.63;5109453;28;20076;-67
2021/12/01 09:53:40;;;;;;;1.73;1.10;;;;;;;6.50;72.96;98030.31;5109737;28;20058;-67
2021/12/01 09:56:09;;;;;;;1.60;1.05;;;;;;;6.50;72.66;98033.78;5109576;28;20074;-67
2021/12/01 09:58:41;;;;;;;1.70;1.17;;;;;;;5.26;72.68;97832.50;5109318;28;20040;-67
2021/12/01 10:01:12;;;;;;;2.13;1.40;;;;;;;6.48;72.92;98009.34;5109361;28;20047;-67
2021/12/01 10:03:40;;;;;;;1.73;1.10;;;;;;;6.48;72.85;98009.34;5109309;28;20056;-67
2021/12/01 10:06:13;;;;;;;1.70;1.10;;;;;;;6.50;72.60;97999.56;5109209;28;20044;-67
2021/12/01 10:08:49;;;;;;;2.20;1.30;;;;;;;6.47;72.82;97986.59;5109602;28;20036;-67
2021/12/01 10:11:24;;;;;;;1.77;1.20;;;;;;;6.51;72.52;97989.88;5109509;28;20036;-67
2021/12/01 10:13:58;;;;;;;2.05;1.20;;;;;;;6.31;72.37;97948.97;5109262;28;20036;-67
2021/12/01 10:16:33;;;;;;;2.30;1.30;;;;;;;6.52;72.20;97978.41;5109156;28;20047;-67
2021/12/01 10:19:07;;;;;;;2.80;1.75;;;;;;;6.54;72.12;97973.91;5109321;28;20040;-66
2021/12/01 10:21:42;;;;;;;2.40;1.50;;;;;;;6.54;72.32;97980.03;5109365;28;20055;-67
2021/12/01 10:24:17;;;;;;;4.25;1.85;;;;;;;6.53;72.87;97975.69;5109224;28;20044;-67
2021/12/01 10:26:52;;;;;;;5.53;1.60;;;;;;;6.52;73.15;97974.00;5109021;28;20086;-67
2021/12/01 10:29:27;;;;;;;3.95;2.08;;;;;;;6.52;73.25;97962.63;5109289;28;20058;-67
2021/12/01 10:32:03;;;;;;;2.70;1.67;;;;;;;6.52;72.90;97946.84;5109091;28;20085;-66
2021/12/01 10:34:36;;;;;;;2.50;1.35;;;;;;;6.52;72.93;97937.16;5109069;28;20051;-67
2021/12/01 10:37:12;;;;;;;2.17;1.45;;;;;;;6.55;72.61;97936.97;5108999;28;20040;-66
2021/12/01 10:39:48;;;;;;;2.80;1.52;;;;;;;6.58;72.55;97928.03;5091839;28;20288;-66
2021/12/01 10:42:20;;;;;;;3.17;1.95;;;;;;;6.64;72.19;97920.59;5108426;28;20044;-67
2021/12/01 10:44:57;;;;;;;3.78;1.73;;;;;;;6.64;72.20;97915.34;5108634;28;20308;-66
2021/12/01 10:47:40;;;;;;;2.88;1.63;;;;;;;6.66;72.43;97915.25;5108359;28;20316;-66
2021/12/01 10:50:14;;;;;;;3.33;1.88;;;;;;;6.70;71.91;97908.84;5108477;28;20040;-66
2021/12/01 10:52:49;;;;;;;2.42;1.52;;;;;;;6.51;71.78;97871.44;5108588;28;20039;-67
2021/12/01 10:55:25;;;;;;;4.32;1.83;;;;;;;6.73;71.64;97884.97;5108561;28;20051;-67
2021/12/01 10:57:59;;;;;;;3.83;1.58;;;;;;;6.75;71.63;97881.28;5108618;28;20178;-67
2021/12/01 11:00:39;;;;;;;3.70;1.70;;;;;;;6.54;71.51;97844.94;5108294;28;20227;-67
2021/12/01 11:03:13;;;;;;;7.10;1.95;;;;;;;6.76;71.59;97876.88;5108398;28;20040;-66
2021/12/01 11:05:47;;;;;;;4.95;2.00;;;;;;;6.80;71.20;97896.81;5107669;28;20065;-67
2021/12/01 11:08:22;;;;;;;3.63;1.70;;;;;;;6.81;71.66;97860.81;5107979;28;20051;-67
2021/12/01 11:10:58;;;;;;;3.08;1.88;;;;;;;6.82;71.56;97860.72;5107781;28;20047;-67
2021/12/01 11:13:31;;;;;;;3.45;1.92;;;;;;;6.86;71.43;97848.19;5108131;28;20085;-67
2021/12/01 11:16:07;;;;;;;3.45;2.03;;;;;;;6.87;71.29;97853.34;5107884;28;20066;-66
2021/12/01 11:18:41;;;;;;;5.47;2.25;;;;;;;6.90;71.43;97849.69;5090172;28;20039;-67
2021/12/01 11:21:16;;;;;;;2.97;1.77;;;;;;;6.90;71.46;97852.31;5108068;28;20043;-67
2021/12/01 11:23:46;;;;;;;4.25;2.20;;;;;;;6.95;71.25;97844.97;5107624;28;20052;-67
2021/12/01 11:26:19;;;;;;;6.47;2.35;;;;;;;6.89;71.10;97829.56;5107685;28;20203;-67
2021/12/01 11:28:52;;;;;;;3.25;2.25;;;;;;;6.99;70.99;97828.88;5107558;28;20238;-67
2021/12/01 11:31:22;;;;;;;3.45;1.80;;;;;;;7.02;70.91;97835.72;5107069;28;20056;-67
2021/12/01 11:33:54;;;;;;;4.18;2.75;;;;;;;7.04;70.88;97831.19;5107546;28;20126;-67
2021/12/01 11:36:29;;;;;;;3.05;1.65;;;;;;;6.83;70.73;97788.66;5107243;28;20043;-67
2021/12/01 11:39:05;;;;;;;2.63;1.80;;;;;;;6.09;70.69;97679.34;5107504;28;20181;-67
2021/12/01 11:41:42;;;;;;;3.92;1.67;;;;;;;7.05;70.65;97798.66;5107158;28;20044;-66
2021/12/01 11:44:17;;;;;;;3.15;1.75;;;;;;;7.06;70.93;97811.72;5107229;28;20058;-66
2021/12/01 11:46:51;;;;;;;2.55;1.70;;;;;;;7.10;70.75;97801.81;5106876;28;20106;-66
2021/12/01 11:49:27;;;;;;;3.78;1.80;;;;;;;7.04;70.92;97805.72;5107052;28;20081;-66
2021/12/01 11:52:04;;;;;;;3.45;2.17;;;;;;;7.05;71.02;97809.19;5107211;28;20040;-67
2021/12/01 11:54:43;;;;;;;4.28;2.47;;;;;;;7.04;71.47;97799.59;5107280;28;20089;-67
2021/12/01 11:57:17;;;;;;;6.28;2.13;;;;;;;6.66;71.29;97734.44;5107119;28;20097;-67
2021/12/01 11:59:49;;;;;;;3.40;2.15;;;;;;;6.99;71.38;97789.34;5107101;28;20345;-67
2021/12/01 12:02:23;;;;;;;2.40;1.50;;;;;;;6.95;70.93;97777.34;5107092;28;20227;-66
2021/12/01 12:04:57;;;;;;;5.68;1.90;;;;;;;6.91;70.70;97780.25;5106962;28;20043;-67
2021/12/01 12:07:36;;;;;;;3.60;2.22;;;;;;;6.65;70.65;97745.91;5106087;28;20043;-67
2021/12/01 12:10:17;;;;;;;3.33;2.13;;;;;;;6.82;70.38;97786.97;5106634;28;20085;-67